sensor_id;sensor_type;location;lat;lon;timestamp;pressure;altitude;pressure_sealevel;temperature;humidity
50093;BME280;35974;47.752;10.290;2023-12-22T00:00:30;92554.66;;;4.36;100.00
50093;BME280;35974;47.752;10.290;2023-12-22T00:02:57;92559.03;;;4.22;100.00
50093;BME280;35974;47.752;10.290;2023-12-22T00:05:24;92535.13;;;4.20;100.00
50093;BME280;35974;47.752;10.290;2023-12-22T00:07:50;92520.19;;;4.22;100.00
50093;BME280;35974;47.752;10.290;2023-12-22T00:10:17;92550.09;;;4.45;100.00
50093;BME280;35974;47.752;10.290;2023-12-22T00:12:44;92541.53;;;4.51;100.00
50093;BME280;35974;47.752;10.290;2023-12-22T00:15:10;92521.59;;;4.45;100.00
50093;BME280;35974;47.752;10.290;2023-12-22T00:17:37;92533.56;;;4.59;100.00
50093;BME280;35974;47.752;10.290;2023-12-22T00:20:05;92509.66;;;4.57;100.00
50093;BME280;35974;47.752;10.290;2023-12-22T00:22:32;92544.31;;;4.63;100.00
50093;BME280;35974;47.752;10.290;2023-12-22T00:24:58;92511.63;;;4.62;100.00
50093;BME280;35974;47.752;10.290;2023-12-22T00:27:25;92510.41;;;4.64;100.00
50093;BME280;35974;47.752;10.290;2023-12-22T00:29:51;92521.19;;;4.74;100.00
50093;BME280;35974;47.752;10.290;2023-12-22T00:32:18;92504.03;;;4.73;100.00
50093;BME280;35974;47.752;10.290;2023-12-22T00:34:44;92490.09;;;4.74;100.00
50093;BME280;35974;47.752;10.290;2023-12-22T00:37:11;92490.88;;;4.82;100.00
50093;BME280;35974;47.752;10.290;2023-12-22T00:39:38;92481.50;;;4.81;100.00
50093;BME280;35974;47.752;10.290;2023-12-22T00:42:05;92495.28;;;4.74;100.00
50093;BME280;35974;47.752;10.290;2023-12-22T00:44:31;92485.31;;;4.71;100.00
50093;BME280;35974;47.752;10.290;2023-12-22T00:47:16;92511.59;;;4.88;100.00
50093;BME280;35974;47.752;10.290;2023-12-22T00:49:43;92498.06;;;4.80;100.00
50093;BME280;35974;47.752;10.290;2023-12-22T00:52:09;92494.84;;;4.77;100.00
50093;BME280;35974;47.752;10.290;2023-12-22T00:54:36;92447.50;;;4.44;100.00
50093;BME280;35974;47.752;10.290;2023-12-22T00:57:02;92527.56;;;4.79;100.00
50093;BME280;35974;47.752;10.290;2023-12-22T00:59:29;92512.03;;;4.65;100.00
50093;BME280;35974;47.752;10.290;2023-12-22T01:01:56;92553.47;;;4.65;100.00
50093;BME280;35974;47.752;10.290;2023-12-22T01:04:22;92531.97;;;4.71;100.00
50093;BME280;35974;47.752;10.290;2023-12-22T01:06:49;92544.28;;;4.69;100.00
50093;BME280;35974;47.752;10.290;2023-12-22T01:09:16;92551.06;;;4.84;100.00
50093;BME280;35974;47.752;10.290;2023-12-22T01:11:42;92577.38;;;4.67;100.00
50093;BME280;35974;47.752;10.290;2023-12-22T01:14:09;92548.69;;;4.62;100.00
50093;BME280;35974;47.752;10.290;2023-12-22T01:16:35;92477.38;;;4.13;100.00
50093;BME280;35974;47.752;10.290;2023-12-22T01:19:02;92582.97;;;4.64;100.00
50093;BME280;35974;47.752;10.290;2023-12-22T01:21:28;92555.88;;;4.73;100.00
50093;BME280;35974;47.752;10.290;2023-12-22T01:23:55;92527.94;;;4.15;100.00
50093;BME280;35974;47.752;10.290;2023-12-22T01:26:21;92612.06;;;4.66;100.00
50093;BME280;35974;47.752;10.290;2023-12-22T01:28:48;92617.66;;;4.63;100.00
50093;BME280;35974;47.752;10.290;2023-12-22T01:31:14;92616.66;;;4.51;100.00
50093;BME280;35974;47.752;10.290;2023-12-22T01:33:41;92685.38;;;4.47;100.00
50093;BME280;35974;47.752;10.290;2023-12-22T01:36:09;92677.31;;;3.32;100.00
50093;BME280;35974;47.752;10.290;2023-12-22T01:38:35;92655.25;;;2.58;100.00
50093;BME280;35974;47.752;10.290;2023-12-22T01:41:02;92648.72;;;2.40;100.00
50093;BME280;35974;47.752;10.290;2023-12-22T01:43:28;92613.31;;;2.34;100.00
50093;BME280;35974;47.752;10.290;2023-12-22T01:46:01;92619.47;;;2.54;100.00
50093;BME280;35974;47.752;10.290;2023-12-22T01:48:28;92645.03;;;2.71;100.00
50093;BME280;35974;47.752;10.290;2023-12-22T01:50:58;92611.94;;;2.60;100.00
50093;BME280;35974;47.752;10.290;2023-12-22T01:53:26;92616.78;;;2.69;100.00
50093;BME280;35974;47.752;10.290;2023-12-22T01:55:54;92649.91;;;2.87;100.00
50093;BME280;35974;47.752;10.290;2023-12-22T01:58:25;92643.50;;;2.77;100.00
50093;BME280;35974;47.752;10.290;2023-12-22T02:00:54;92663.72;;;2.95;100.00
50093;BME280;35974;47.752;10.290;2023-12-22T02:03:22;92671.09;;;2.98;100.00
50093;BME280;35974;47.752;10.290;2023-12-22T02:05:49;92633.66;;;2.93;100.00
50093;BME280;35974;47.752;10.290;2023-12-22T02:08:17;92654.56;;;2.99;100.00
50093;BME280;35974;47.752;10.290;2023-12-22T02:10:44;92651.53;;;2.88;100.00
50093;BME280;35974;47.752;10.290;2023-12-22T02:13:11;92653.59;;;3.00;100.00
50093;BME280;35974;47.752;10.290;2023-12-22T02:15:38;92623.84;;;2.82;100.00
50093;BME280;35974;47.752;10.290;2023-12-22T02:18:07;92653.47;;;3.08;100.00
50093;BME280;35974;47.752;10.290;2023-12-22T02:20:36;92650.88;;;3.08;100.00
50093;BME280;35974;47.752;10.290;2023-12-22T02:23:03;92630.63;;;3.11;100.00
50093;BME280;35974;47.752;10.290;2023-12-22T02:25:29;92639.38;;;3.10;100.00
50093;BME280;35974;47.752;10.290;2023-12-22T02:28:17;92643.34;;;3.13;100.00
50093;BME280;35974;47.752;10.290;2023-12-22T02:33:15;92613.19;;;3.20;100.00
50093;BME280;35974;47.752;10.290;2023-12-22T02:35:44;92631.22;;;3.42;100.00
50093;BME280;35974;47.752;10.290;2023-12-22T02:38:12;92637.13;;;3.36;100.00
50093;BME280;35974;47.752;10.290;2023-12-22T02:40:39;92628.84;;;3.47;100.00
50093;BME280;35974;47.752;10.290;2023-12-22T02:43:06;92610.69;;;3.34;100.00
50093;BME280;35974;47.752;10.290;2023-12-22T02:45:33;92619.41;;;3.33;100.00
50093;BME280;35974;47.752;10.290;2023-12-22T02:48:00;92606.97;;;3.43;100.00
50093;BME280;35974;47.752;10.290;2023-12-22T02:50:27;92620.09;;;3.48;100.00
50093;BME280;35974;47.752;10.290;2023-12-22T02:52:53;92617.75;;;3.53;100.00
50093;BME280;35974;47.752;10.290;2023-12-22T02:55:20;92612.19;;;3.56;100.00
50093;BME280;35974;47.752;10.290;2023-12-22T02:57:46;92596.44;;;3.51;100.00
50093;BME280;35974;47.752;10.290;2023-12-22T03:00:13;92602.59;;;3.50;100.00
50093;BME280;35974;47.752;10.290;2023-12-22T03:02:40;92609.00;;;3.54;100.00
50093;BME280;35974;47.752;10.290;2023-12-22T03:05:07;92602.22;;;3.53;100.00
50093;BME280;35974;47.752;10.290;2023-12-22T03:07:33;92626.16;;;3.69;100.00
50093;BME280;35974;47.752;10.290;2023-12-22T03:10:00;92601.50;;;3.73;100.00
50093;BME280;35974;47.752;10.290;2023-12-22T03:12:27;92613.41;;;3.67;100.00
50093;BME280;35974;47.752;10.290;2023-12-22T03:14:53;92633.91;;;3.69;100.00
50093;BME280;35974;47.752;10.290;2023-12-22T03:17:20;92613.75;;;3.57;100.00
50093;BME280;35974;47.752;10.290;2023-12-22T03:19:46;92631.72;;;3.65;100.00
50093;BME280;35974;47.752;10.290;2023-12-22T03:22:12;92652.19;;;3.60;100.00
50093;BME280;35974;47.752;10.290;2023-12-22T03:24:39;92635.69;;;3.61;100.00
50093;BME280;35974;47.752;10.290;2023-12-22T03:27:06;92668.22;;;3.49;100.00
50093;BME280;35974;47.752;10.290;2023-12-22T03:29:32;92710.47;;;3.56;100.00
50093;BME280;35974;47.752;10.290;2023-12-22T03:31:59;92704.34;;;3.36;100.00
50093;BME280;35974;47.752;10.290;2023-12-22T03:34:25;92700.22;;;3.13;100.00
50093;BME280;35974;47.752;10.290;2023-12-22T03:36:52;92704.59;;;2.69;100.00
50093;BME280;35974;47.752;10.290;2023-12-22T03:39:19;92698.84;;;2.46;100.00
50093;BME280;35974;47.752;10.290;2023-12-22T03:41:45;92725.66;;;2.30;100.00
50093;BME280;35974;47.752;10.290;2023-12-22T03:44:12;92715.19;;;2.16;100.00
50093;BME280;35974;47.752;10.290;2023-12-22T03:46:38;92699.03;;;1.93;100.00
50093;BME280;35974;47.752;10.290;2023-12-22T03:49:05;92702.16;;;1.88;100.00
50093;BME280;35974;47.752;10.290;2023-12-22T03:51:31;92745.09;;;1.96;100.00
50093;BME280;35974;47.752;10.290;2023-12-22T03:53:58;92742.28;;;1.91;100.00
50093;BME280;35974;47.752;10.290;2023-12-22T03:56:24;92741.75;;;1.80;100.00
50093;BME280;35974;47.752;10.290;2023-12-22T03:58:51;92698.72;;;1.66;100.00
50093;BME280;35974;47.752;10.290;2023-12-22T04:01:17;92697.19;;;1.72;100.00
50093;BME280;35974;47.752;10.290;2023-12-22T04:03:44;92695.78;;;1.69;100.00
50093;BME280;35974;47.752;10.290;2023-12-22T04:06:11;92698.16;;;1.86;100.00
50093;BME280;35974;47.752;10.290;2023-12-22T04:08:37;92674.31;;;1.83;100.00
50093;BME280;35974;47.752;10.290;2023-12-22T04:11:04;92698.31;;;1.99;100.00
50093;BME280;35974;47.752;10.290;2023-12-22T04:13:30;92698.47;;;2.12;100.00
50093;BME280;35974;47.752;10.290;2023-12-22T04:15:57;92700.22;;;2.27;100.00
50093;BME280;35974;47.752;10.290;2023-12-22T04:18:23;92703.75;;;2.26;100.00
50093;BME280;35974;47.752;10.290;2023-12-22T04:20:50;92703.03;;;2.32;100.00
50093;BME280;35974;47.752;10.290;2023-12-22T04:23:20;92709.34;;;2.44;100.00
50093;BME280;35974;47.752;10.290;2023-12-22T04:25:46;92691.28;;;2.44;100.00
50093;BME280;35974;47.752;10.290;2023-12-22T04:28:13;92696.06;;;2.47;100.00
50093;BME280;35974;47.752;10.290;2023-12-22T04:30:39;92675.78;;;2.44;100.00
50093;BME280;35974;47.752;10.290;2023-12-22T04:33:06;92710.06;;;2.60;100.00
50093;BME280;35974;47.752;10.290;2023-12-22T04:35:32;92696.75;;;2.56;100.00
50093;BME280;35974;47.752;10.290;2023-12-22T04:37:59;92721.66;;;2.64;100.00
50093;BME280;35974;47.752;10.290;2023-12-22T04:40:26;92715.88;;;2.62;100.00
50093;BME280;35974;47.752;10.290;2023-12-22T04:42:54;92716.13;;;2.67;100.00
50093;BME280;35974;47.752;10.290;2023-12-22T04:45:21;92738.38;;;2.68;100.00
50093;BME280;35974;47.752;10.290;2023-12-22T04:47:47;92723.25;;;2.65;100.00
50093;BME280;35974;47.752;10.290;2023-12-22T04:50:14;92728.03;;;2.68;100.00
50093;BME280;35974;47.752;10.290;2023-12-22T04:52:41;92742.81;;;2.74;100.00
50093;BME280;35974;47.752;10.290;2023-12-22T04:55:08;92743.06;;;2.79;100.00
50093;BME280;35974;47.752;10.290;2023-12-22T04:57:34;92730.50;;;2.76;100.00
50093;BME280;35974;47.752;10.290;2023-12-22T05:00:01;92745.69;;;2.86;100.00
50093;BME280;35974;47.752;10.290;2023-12-22T05:02:27;92737.47;;;2.75;100.00
50093;BME280;35974;47.752;10.290;2023-12-22T05:04:55;92736.19;;;2.86;100.00
50093;BME280;35974;47.752;10.290;2023-12-22T05:07:22;92732.13;;;2.77;100.00
50093;BME280;35974;47.752;10.290;2023-12-22T05:09:50;92750.44;;;2.82;100.00
50093;BME280;35974;47.752;10.290;2023-12-22T05:12:19;92757.56;;;2.80;100.00
50093;BME280;35974;47.752;10.290;2023-12-22T05:14:46;92756.84;;;2.86;100.00
50093;BME280;35974;47.752;10.290;2023-12-22T05:17:12;92760.53;;;2.99;100.00
50093;BME280;35974;47.752;10.290;2023-12-22T05:19:45;92740.97;;;2.89;100.00
50093;BME280;35974;47.752;10.290;2023-12-22T05:22:17;92745.03;;;2.99;100.00
50093;BME280;35974;47.752;10.290;2023-12-22T05:24:44;92744.53;;;2.88;100.00
50093;BME280;35974;47.752;10.290;2023-12-22T05:27:10;92739.38;;;2.88;100.00
50093;BME280;35974;47.752;10.290;2023-12-22T05:29:37;92725.47;;;2.89;100.00
50093;BME280;35974;47.752;10.290;2023-12-22T05:32:04;92719.44;;;2.82;100.00
50093;BME280;35974;47.752;10.290;2023-12-22T05:34:31;92753.03;;;2.82;100.00
50093;BME280;35974;47.752;10.290;2023-12-22T05:36:58;92737.03;;;2.93;100.00
50093;BME280;35974;47.752;10.290;2023-12-22T05:39:24;92742.56;;;2.90;100.00
50093;BME280;35974;47.752;10.290;2023-12-22T05:41:51;92730.84;;;2.88;100.00
50093;BME280;35974;47.752;10.290;2023-12-22T05:44:17;92707.00;;;2.71;100.00
50093;BME280;35974;47.752;10.290;2023-12-22T05:46:45;92753.41;;;3.01;100.00
50093;BME280;35974;47.752;10.290;2023-12-22T05:49:13;92734.69;;;2.99;100.00
50093;BME280;35974;47.752;10.290;2023-12-22T05:51:39;92740.72;;;3.06;100.00
50093;BME280;35974;47.752;10.290;2023-12-22T05:54:10;92713.47;;;2.82;100.00
50093;BME280;35974;47.752;10.290;2023-12-22T05:56:37;92761.50;;;3.19;100.00
50093;BME280;35974;47.752;10.290;2023-12-22T05:59:04;92762.25;;;3.13;100.00
50093;BME280;35974;47.752;10.290;2023-12-22T06:01:32;92748.97;;;3.16;100.00
50093;BME280;35974;47.752;10.290;2023-12-22T06:04:00;92762.84;;;3.15;100.00
50093;BME280;35974;47.752;10.290;2023-12-22T06:06:26;92770.19;;;3.11;100.00
50093;BME280;35974;47.752;10.290;2023-12-22T06:08:55;92802.50;;;3.22;100.00
50093;BME280;35974;47.752;10.290;2023-12-22T06:11:23;92819.53;;;3.17;100.00
50093;BME280;35974;47.752;10.290;2023-12-22T06:13:49;92844.34;;;3.11;100.00
50093;BME280;35974;47.752;10.290;2023-12-22T06:16:16;92827.59;;;2.85;100.00
50093;BME280;35974;47.752;10.290;2023-12-22T06:18:45;92826.97;;;2.83;100.00
50093;BME280;35974;47.752;10.290;2023-12-22T06:21:14;92827.19;;;2.67;100.00
50093;BME280;35974;47.752;10.290;2023-12-22T06:23:41;92817.00;;;2.80;100.00
50093;BME280;35974;47.752;10.290;2023-12-22T06:26:09;92803.06;;;2.60;100.00
50093;BME280;35974;47.752;10.290;2023-12-22T06:28:36;92829.22;;;2.56;100.00
50093;BME280;35974;47.752;10.290;2023-12-22T06:31:04;92843.72;;;2.72;100.00
50093;BME280;35974;47.752;10.290;2023-12-22T06:33:30;92828.38;;;2.86;100.00
50093;BME280;35974;47.752;10.290;2023-12-22T06:35:57;92835.09;;;2.80;100.00
50093;BME280;35974;47.752;10.290;2023-12-22T06:38:27;92816.63;;;2.83;100.00
50093;BME280;35974;47.752;10.290;2023-12-22T06:40:54;92820.97;;;2.98;100.00
50093;BME280;35974;47.752;10.290;2023-12-22T06:43:21;92804.81;;;2.74;100.00
50093;BME280;35974;47.752;10.290;2023-12-22T06:45:48;92828.84;;;2.89;100.00
50093;BME280;35974;47.752;10.290;2023-12-22T06:48:15;92841.63;;;2.98;100.00
50093;BME280;35974;47.752;10.290;2023-12-22T06:50:41;92824.16;;;3.00;100.00
50093;BME280;35974;47.752;10.290;2023-12-22T06:53:11;92834.63;;;3.13;100.00
50093;BME280;35974;47.752;10.290;2023-12-22T06:55:51;92830.34;;;3.20;100.00
50093;BME280;35974;47.752;10.290;2023-12-22T06:58:17;92807.41;;;2.96;100.00
50093;BME280;35974;47.752;10.290;2023-12-22T07:00:44;92830.69;;;3.17;100.00
50093;BME280;35974;47.752;10.290;2023-12-22T07:03:11;92833.09;;;3.19;100.00
50093;BME280;35974;47.752;10.290;2023-12-22T07:05:39;92851.38;;;3.17;100.00
50093;BME280;35974;47.752;10.290;2023-12-22T07:08:06;92860.59;;;3.26;100.00
50093;BME280;35974;47.752;10.290;2023-12-22T07:10:33;92889.16;;;3.18;100.00
50093;BME280;35974;47.752;10.290;2023-12-22T07:12:59;92875.63;;;3.16;100.00
50093;BME280;35974;47.752;10.290;2023-12-22T07:15:26;92849.63;;;3.03;100.00
50093;BME280;35974;47.752;10.290;2023-12-22T07:17:52;92859.25;;;3.09;100.00
50093;BME280;35974;47.752;10.290;2023-12-22T07:20:20;92867.63;;;3.11;100.00
50093;BME280;35974;47.752;10.290;2023-12-22T07:22:46;92858.88;;;3.12;100.00
50093;BME280;35974;47.752;10.290;2023-12-22T07:25:13;92878.31;;;3.08;100.00
50093;BME280;35974;47.752;10.290;2023-12-22T07:27:40;92866.88;;;3.17;100.00
50093;BME280;35974;47.752;10.290;2023-12-22T07:30:07;92851.31;;;3.10;100.00
50093;BME280;35974;47.752;10.290;2023-12-22T07:32:34;92856.13;;;3.14;100.00
50093;BME280;35974;47.752;10.290;2023-12-22T07:35:00;92866.00;;;3.10;100.00
50093;BME280;35974;47.752;10.290;2023-12-22T07:37:27;92850.75;;;3.15;100.00
50093;BME280;35974;47.752;10.290;2023-12-22T07:39:54;92850.63;;;3.02;100.00
50093;BME280;35974;47.752;10.290;2023-12-22T07:42:21;92920.16;;;3.18;100.00
50093;BME280;35974;47.752;10.290;2023-12-22T07:44:48;92904.66;;;3.18;100.00
50093;BME280;35974;47.752;10.290;2023-12-22T07:47:14;92912.16;;;3.13;100.00
50093;BME280;35974;47.752;10.290;2023-12-22T07:49:41;92917.34;;;3.13;100.00
50093;BME280;35974;47.752;10.290;2023-12-22T07:52:08;92918.53;;;3.10;100.00
50093;BME280;35974;47.752;10.290;2023-12-22T07:54:35;92936.31;;;3.05;100.00
50093;BME280;35974;47.752;10.290;2023-12-22T07:57:03;92922.00;;;3.03;100.00
50093;BME280;35974;47.752;10.290;2023-12-22T07:59:30;92962.28;;;3.12;100.00
50093;BME280;35974;47.752;10.290;2023-12-22T08:02:00;92944.44;;;3.17;100.00
50093;BME280;35974;47.752;10.290;2023-12-22T08:04:27;92945.06;;;3.19;100.00
50093;BME280;35974;47.752;10.290;2023-12-22T08:06:53;92934.59;;;3.27;100.00
50093;BME280;35974;47.752;10.290;2023-12-22T08:09:20;92929.44;;;3.27;100.00
50093;BME280;35974;47.752;10.290;2023-12-22T08:11:48;92928.63;;;3.27;100.00
50093;BME280;35974;47.752;10.290;2023-12-22T08:31:21;92954.94;;;3.52;100.00
50093;BME280;35974;47.752;10.290;2023-12-22T08:33:47;92964.19;;;3.40;100.00
50093;BME280;35974;47.752;10.290;2023-12-22T08:36:14;92945.97;;;3.48;100.00
50093;BME280;35974;47.752;10.290;2023-12-22T08:38:41;92939.06;;;3.55;100.00
50093;BME280;35974;47.752;10.290;2023-12-22T08:41:08;92956.81;;;3.58;100.00
50093;BME280;35974;47.752;10.290;2023-12-22T08:43:35;92958.06;;;3.62;100.00
50093;BME280;35974;47.752;10.290;2023-12-22T08:46:02;92973.88;;;3.53;100.00
50093;BME280;35974;47.752;10.290;2023-12-22T08:48:28;92961.69;;;3.68;100.00
50093;BME280;35974;47.752;10.290;2023-12-22T08:50:55;92952.44;;;3.59;100.00
50093;BME280;35974;47.752;10.290;2023-12-22T08:53:21;92963.59;;;3.59;100.00
50093;BME280;35974;47.752;10.290;2023-12-22T08:55:48;92949.16;;;3.50;100.00
50093;BME280;35974;47.752;10.290;2023-12-22T08:58:14;92959.75;;;3.55;100.00
50093;BME280;35974;47.752;10.290;2023-12-22T09:00:41;92954.47;;;3.63;100.00
50093;BME280;35974;47.752;10.290;2023-12-22T09:03:07;92952.88;;;3.62;100.00
50093;BME280;35974;47.752;10.290;2023-12-22T09:05:34;92948.56;;;3.70;100.00
50093;BME280;35974;47.752;10.290;2023-12-22T09:08:01;92946.34;;;3.66;100.00
50093;BME280;35974;47.752;10.290;2023-12-22T09:10:27;92966.56;;;3.78;100.00
50093;BME280;35974;47.752;10.290;2023-12-22T09:12:54;92970.06;;;3.70;100.00
50093;BME280;35974;47.752;10.290;2023-12-22T09:15:20;92949.91;;;3.65;100.00
50093;BME280;35974;47.752;10.290;2023-12-22T09:17:46;92967.66;;;3.69;100.00
50093;BME280;35974;47.752;10.290;2023-12-22T09:20:14;92972.47;;;3.72;100.00
50093;BME280;35974;47.752;10.290;2023-12-22T09:22:40;92969.75;;;3.80;100.00
50093;BME280;35974;47.752;10.290;2023-12-22T09:25:07;92975.81;;;3.87;100.00
50093;BME280;35974;47.752;10.290;2023-12-22T09:27:35;92964.44;;;3.66;100.00
50093;BME280;35974;47.752;10.290;2023-12-22T09:30:01;92978.53;;;3.79;100.00
50093;BME280;35974;47.752;10.290;2023-12-22T13:10:26;92776.66;;;3.01;100.00
50093;BME280;35974;47.752;10.290;2023-12-22T13:12:54;92711.69;;;2.61;100.00
50093;BME280;35974;47.752;10.290;2023-12-22T13:15:21;92704.06;;;2.52;100.00
50093;BME280;35974;47.752;10.290;2023-12-22T13:17:48;92792.84;;;3.09;100.00
50093;BME280;35974;47.752;10.290;2023-12-22T13:20:16;92791.16;;;3.02;100.00
50093;BME280;35974;47.752;10.290;2023-12-22T13:22:43;92757.22;;;2.83;100.00
50093;BME280;35974;47.752;10.290;2023-12-22T13:25:09;92778.13;;;2.88;100.00
50093;BME280;35974;47.752;10.290;2023-12-22T13:27:47;92728.63;;;2.48;100.00
50093;BME280;35974;47.752;10.290;2023-12-22T13:30:15;92735.91;;;2.60;100.00
50093;BME280;35974;47.752;10.290;2023-12-22T13:32:53;92732.34;;;2.61;100.00
50093;BME280;35974;47.752;10.290;2023-12-22T13:35:23;92715.34;;;2.30;100.00
50093;BME280;35974;47.752;10.290;2023-12-22T13:37:50;92785.75;;;2.75;100.00
50093;BME280;35974;47.752;10.290;2023-12-22T13:40:17;92758.78;;;2.84;100.00
50093;BME280;35974;47.752;10.290;2023-12-22T13:42:59;92769.13;;;2.84;100.00
50093;BME280;35974;47.752;10.290;2023-12-22T13:45:28;92789.81;;;2.84;100.00
50093;BME280;35974;47.752;10.290;2023-12-22T13:48:02;92792.50;;;2.76;100.00
50093;BME280;35974;47.752;10.290;2023-12-22T13:50:55;92754.44;;;2.85;100.00
50093;BME280;35974;47.752;10.290;2023-12-22T13:53:22;92775.59;;;2.95;100.00
50093;BME280;35974;47.752;10.290;2023-12-22T13:55:56;92784.34;;;2.94;100.00
50093;BME280;35974;47.752;10.290;2023-12-22T13:58:25;92760.47;;;2.92;100.00
50093;BME280;35974;47.752;10.290;2023-12-22T14:00:53;92783.47;;;3.08;100.00
50093;BME280;35974;47.752;10.290;2023-12-22T14:03:20;92783.28;;;3.10;100.00
50093;BME280;35974;47.752;10.290;2023-12-22T14:05:53;92783.66;;;3.07;100.00
50093;BME280;35974;47.752;10.290;2023-12-22T14:08:20;92781.19;;;2.99;100.00
50093;BME280;35974;47.752;10.290;2023-12-22T14:10:55;92774.28;;;2.84;100.00
50093;BME280;35974;47.752;10.290;2023-12-22T14:13:21;92790.13;;;3.18;100.00
50093;BME280;35974;47.752;10.290;2023-12-22T14:15:57;92791.81;;;3.25;100.00
50093;BME280;35974;47.752;10.290;2023-12-22T14:18:26;92795.00;;;3.27;100.00
50093;BME280;35974;47.752;10.290;2023-12-22T14:20:53;92812.59;;;3.39;100.00
50093;BME280;35974;47.752;10.290;2023-12-22T14:23:33;92795.41;;;3.31;100.00
50093;BME280;35974;47.752;10.290;2023-12-22T14:25:59;92738.63;;;2.95;100.00
50093;BME280;35974;47.752;10.290;2023-12-22T14:28:26;92747.16;;;3.17;100.00
50093;BME280;35974;47.752;10.290;2023-12-22T14:30:57;92754.72;;;3.18;100.00
50093;BME280;35974;47.752;10.290;2023-12-22T14:33:23;92784.44;;;3.51;100.00
50093;BME280;35974;47.752;10.290;2023-12-22T14:35:50;92779.81;;;3.46;100.00
50093;BME280;35974;47.752;10.290;2023-12-22T14:38:17;92783.69;;;3.57;100.00
50093;BME280;35974;47.752;10.290;2023-12-22T14:40:51;92781.19;;;3.42;100.00
50093;BME280;35974;47.752;10.290;2023-12-22T14:43:18;92765.56;;;3.28;100.00
50093;BME280;35974;47.752;10.290;2023-12-22T14:45:46;92790.06;;;3.54;100.00
50093;BME280;35974;47.752;10.290;2023-12-22T14:48:14;92803.22;;;3.59;100.00
50093;BME280;35974;47.752;10.290;2023-12-22T14:50:41;92809.91;;;3.54;100.00
50093;BME280;35974;47.752;10.290;2023-12-22T14:53:11;92786.09;;;3.58;100.00
50093;BME280;35974;47.752;10.290;2023-12-22T14:55:40;92814.03;;;3.70;100.00
50093;BME280;35974;47.752;10.290;2023-12-22T14:58:07;92793.34;;;3.70;100.00
50093;BME280;35974;47.752;10.290;2023-12-22T15:00:37;92788.53;;;3.66;100.00
50093;BME280;35974;47.752;10.290;2023-12-22T15:03:04;92819.22;;;3.70;100.00
50093;BME280;35974;47.752;10.290;2023-12-22T15:05:32;92800.94;;;3.78;100.00
50093;BME280;35974;47.752;10.290;2023-12-22T15:08:03;92809.69;;;3.77;100.00
50093;BME280;35974;47.752;10.290;2023-12-22T15:10:29;92801.31;;;3.75;100.00
50093;BME280;35974;47.752;10.290;2023-12-22T15:12:56;92815.81;;;3.97;100.00
50093;BME280;35974;47.752;10.290;2023-12-22T15:15:22;92811.75;;;3.88;100.00
50093;BME280;35974;47.752;10.290;2023-12-22T15:17:49;92813.00;;;3.92;100.00
50093;BME280;35974;47.752;10.290;2023-12-22T15:20:20;92827.78;;;3.98;100.00
50093;BME280;35974;47.752;10.290;2023-12-22T15:22:49;92818.78;;;3.94;100.00
50093;BME280;35974;47.752;10.290;2023-12-22T15:25:20;92818.25;;;4.06;100.00
50093;BME280;35974;47.752;10.290;2023-12-22T15:27:47;92827.44;;;4.08;100.00
50093;BME280;35974;47.752;10.290;2023-12-22T15:30:15;92826.53;;;3.94;100.00
50093;BME280;35974;47.752;10.290;2023-12-22T15:32:41;92842.16;;;4.08;100.00
50093;BME280;35974;47.752;10.290;2023-12-22T15:35:08;92832.59;;;4.01;100.00
50093;BME280;35974;47.752;10.290;2023-12-22T15:37:34;92837.72;;;3.95;100.00
50093;BME280;35974;47.752;10.290;2023-12-22T15:40:02;92819.00;;;3.99;100.00
50093;BME280;35974;47.752;10.290;2023-12-22T15:42:30;92827.78;;;3.98;100.00
50093;BME280;35974;47.752;10.290;2023-12-22T15:44:56;92847.75;;;4.05;100.00
50093;BME280;35974;47.752;10.290;2023-12-22T15:47:23;92851.88;;;3.99;100.00
50093;BME280;35974;47.752;10.290;2023-12-22T15:49:49;92842.13;;;4.01;100.00
50093;BME280;35974;47.752;10.290;2023-12-22T15:52:16;92838.59;;;4.09;100.00
50093;BME280;35974;47.752;10.290;2023-12-22T15:54:45;92838.59;;;4.09;100.00
50093;BME280;35974;47.752;10.290;2023-12-22T15:57:11;92846.56;;;4.14;100.00
50093;BME280;35974;47.752;10.290;2023-12-22T15:59:38;92838.22;;;4.12;100.00
50093;BME280;35974;47.752;10.290;2023-12-22T16:02:04;92841.78;;;4.11;100.00
50093;BME280;35974;47.752;10.290;2023-12-22T16:04:33;92854.56;;;4.19;100.00
50093;BME280;35974;47.752;10.290;2023-12-22T16:06:59;92867.28;;;4.14;100.00
50093;BME280;35974;47.752;10.290;2023-12-22T16:09:26;92849.03;;;4.22;100.00
50093;BME280;35974;47.752;10.290;2023-12-22T16:11:52;92887.25;;;4.20;100.00
50093;BME280;35974;47.752;10.290;2023-12-22T16:14:19;92871.38;;;4.30;100.00
50093;BME280;35974;47.752;10.290;2023-12-22T16:16:45;92868.59;;;4.31;100.00
50093;BME280;35974;47.752;10.290;2023-12-22T16:19:12;92899.31;;;4.34;100.00
50093;BME280;35974;47.752;10.290;2023-12-22T16:21:41;92872.66;;;4.40;100.00
50093;BME280;35974;47.752;10.290;2023-12-22T16:24:10;92855.06;;;4.29;100.00
50093;BME280;35974;47.752;10.290;2023-12-22T16:26:37;92848.88;;;4.30;100.00
50093;BME280;35974;47.752;10.290;2023-12-22T16:29:03;92869.88;;;4.42;100.00
50093;BME280;35974;47.752;10.290;2023-12-22T16:31:30;92863.81;;;4.28;100.00
50093;BME280;35974;47.752;10.290;2023-12-22T16:33:56;92870.28;;;4.46;100.00
50093;BME280;35974;47.752;10.290;2023-12-22T16:36:23;92870.66;;;4.43;100.00
50093;BME280;35974;47.752;10.290;2023-12-22T16:38:50;92883.25;;;4.46;100.00
50093;BME280;35974;47.752;10.290;2023-12-22T16:41:16;92863.91;;;4.48;100.00
50093;BME280;35974;47.752;10.290;2023-12-22T16:43:43;92859.44;;;4.35;100.00
50093;BME280;35974;47.752;10.290;2023-12-22T16:46:10;92876.28;;;4.53;100.00
50093;BME280;35974;47.752;10.290;2023-12-22T16:48:40;92867.91;;;4.51;100.00